createdAt,value
2022-10-22T00:00:08.209Z,40.38
2022-10-22T00:00:30.816Z,36.95
2022-10-22T00:01:04.954Z,38.38
2022-10-22T00:01:24.731Z,38.85
2022-10-22T00:01:38.930Z,37.83
2022-10-22T00:01:51.673Z,37.47
2022-10-22T00:02:07.580Z,39.03
2022-10-22T00:02:20.721Z,39.58
2022-10-22T00:02:33.499Z,38.17
2022-10-22T00:02:46.267Z,38.67
2022-10-22T00:02:59.067Z,39.42
2022-10-22T00:03:11.856Z,39.55
2022-10-22T00:03:25.509Z,40.38
2022-10-22T00:03:38.234Z,38.85
2022-10-22T00:03:50.887Z,39.95
2022-10-22T00:04:04.015Z,38.50
2022-10-22T00:04:16.596Z,37.20
2022-10-22T00:04:32.951Z,35.60
2022-10-22T00:04:50.044Z,36.53
2022-10-22T00:05:02.818Z,36.75
2022-10-22T00:05:15.458Z,36.67
2022-10-22T00:05:28.128Z,38.08
2022-10-22T00:05:40.707Z,39.00
2022-10-22T00:05:53.341Z,39.55
2022-10-22T00:06:06.456Z,38.58
2022-10-22T00:06:20.080Z,38.40
2022-10-22T00:06:33.529Z,38.67
2022-10-22T00:06:46.180Z,37.22
2022-10-22T00:06:59.490Z,35.70
2022-10-22T00:07:12.113Z,36.20
2022-10-22T00:07:26.150Z,36.75
2022-10-22T00:07:39.371Z,38.33
2022-10-22T00:07:53.234Z,37.92
2022-10-22T00:08:06.288Z,39.38
2022-10-22T00:08:18.912Z,38.83
2022-10-22T00:08:31.612Z,37.92
2022-10-22T00:08:44.279Z,38.78
2022-10-22T00:08:57.192Z,39.30
2022-10-22T00:09:10.893Z,38.05
2022-10-22T00:09:23.544Z,36.75
2022-10-22T00:09:37.595Z,35.85
2022-10-22T00:09:50.352Z,38.08
2022-10-22T00:10:04.703Z,38.40
2022-10-22T00:10:17.724Z,36.33
2022-10-22T00:10:30.316Z,36.53
2022-10-22T00:10:43.010Z,36.28
2022-10-22T00:10:56.799Z,35.42
2022-10-22T00:11:11.023Z,36.28
2022-10-22T00:11:23.625Z,39.28
2022-10-22T00:11:36.265Z,40.35
2022-10-22T00:11:48.841Z,38.17
2022-10-22T00:12:01.480Z,34.65
2022-10-22T00:12:15.100Z,36.55
2022-10-22T00:12:28.952Z,39.13
2022-10-22T00:12:41.548Z,37.78
2022-10-22T00:12:54.146Z,35.80
2022-10-22T00:13:07.302Z,36.53
2022-10-22T00:13:20.310Z,39.85
2022-10-22T00:13:32.867Z,37.60
2022-10-22T00:14:06.215Z,39.13
2022-10-22T00:14:19.548Z,41.40
2022-10-22T00:14:32.137Z,40.15
2022-10-22T00:14:44.975Z,38.42
2022-10-22T00:14:57.569Z,37.80
2022-10-22T00:15:12.086Z,37.28
2022-10-22T00:15:24.916Z,37.38
2022-10-22T00:15:37.623Z,37.92
2022-10-22T00:15:51.249Z,38.45
2022-10-22T00:16:03.940Z,36.92
2022-10-22T00:16:17.206Z,36.13
2022-10-22T00:16:29.802Z,37.30
2022-10-22T00:16:42.456Z,38.65
2022-10-22T00:16:56.390Z,36.83
2022-10-22T00:17:11.525Z,36.53
2022-10-22T00:17:25.453Z,38.00
2022-10-22T00:17:38.326Z,38.33
2022-10-22T00:17:51.117Z,37.80
2022-10-22T00:18:03.808Z,36.42
2022-10-22T00:18:16.782Z,35.90
2022-10-22T00:18:29.560Z,34.88
2022-10-22T00:18:42.256Z,36.67
2022-10-22T00:18:54.835Z,37.65
2022-10-22T00:19:09.214Z,38.22
2022-10-22T00:19:21.788Z,37.72
2022-10-22T00:19:34.533Z,36.75
2022-10-22T00:19:47.119Z,39.03
2022-10-22T00:19:59.977Z,39.20
2022-10-22T00:20:12.560Z,41.53
2022-10-22T00:20:25.160Z,38.53
2022-10-22T00:20:37.776Z,36.60
2022-10-22T00:20:51.356Z,35.95
2022-10-22T00:21:05.014Z,35.60
2022-10-22T00:21:17.688Z,36.63
2022-10-22T00:21:30.794Z,35.92
2022-10-22T00:21:43.388Z,36.25
2022-10-22T00:21:55.992Z,34.70
2022-10-22T00:22:10.203Z,35.55
2022-10-22T00:22:22.764Z,36.40
2022-10-22T00:22:35.388Z,37.58
2022-10-22T00:22:48.228Z,39.00
2022-10-22T00:23:00.856Z,37.30
2022-10-22T00:23:13.603Z,38.05
2022-10-22T00:23:26.289Z,39.35
2022-10-22T00:23:41.664Z,39.25
2022-10-22T00:23:54.277Z,36.50
2022-10-22T00:24:07.038Z,37.17
2022-10-22T00:24:19.873Z,37.40
2022-10-22T00:24:32.879Z,38.03
2022-10-22T00:24:46.832Z,36.40
2022-10-22T00:24:59.618Z,37.38
2022-10-22T00:25:12.185Z,38.05
2022-10-22T00:25:25.975Z,36.75
2022-10-22T00:25:38.528Z,36.63
2022-10-22T00:25:51.146Z,38.05
2022-10-22T00:26:03.724Z,37.33
2022-10-22T00:26:16.325Z,36.17
2022-10-22T00:26:28.882Z,35.33
2022-10-22T00:26:41.481Z,35.78
2022-10-22T00:26:54.060Z,37.33
2022-10-22T00:27:08.504Z,38.45
2022-10-22T00:27:21.216Z,38.85
2022-10-22T00:27:33.822Z,39.13
2022-10-22T00:27:46.480Z,38.42
2022-10-22T00:27:59.242Z,37.60
2022-10-22T00:28:11.801Z,37.63
2022-10-22T00:28:24.693Z,36.90
2022-10-22T00:28:38.544Z,37.08
2022-10-22T00:28:51.116Z,37.25
2022-10-22T00:29:03.690Z,34.90
2022-10-22T00:29:18.722Z,34.05
2022-10-22T00:29:31.573Z,35.08
2022-10-22T00:29:44.231Z,34.25
2022-10-22T00:29:56.854Z,35.65
2022-10-22T00:30:11.236Z,37.42
2022-10-22T00:30:23.782Z,36.22
2022-10-22T00:30:36.356Z,34.10
2022-10-22T00:30:48.999Z,31.88
2022-10-22T00:31:02.204Z,33.88
2022-10-22T00:31:15.678Z,36.78
2022-10-22T00:31:28.337Z,36.83
2022-10-22T00:31:41.884Z,36.65
2022-10-22T00:32:07.630Z,36.03
2022-10-22T00:32:20.245Z,36.08
2022-10-22T00:32:33.099Z,37.13
2022-10-22T00:32:45.793Z,35.67
2022-10-22T00:32:58.357Z,32.50
2022-10-22T00:33:11.940Z,33.88
2022-10-22T00:33:24.560Z,34.28
2022-10-22T00:33:37.124Z,34.10
2022-10-22T00:33:49.994Z,33.75
2022-10-22T00:34:02.990Z,34.15
2022-10-22T00:34:16.183Z,35.08
2022-10-22T00:34:29.073Z,36.08
2022-10-22T00:34:42.677Z,34.80
2022-10-22T00:34:55.256Z,35.40
2022-10-22T00:35:08.087Z,35.58
2022-10-22T00:35:21.177Z,35.58
2022-10-22T00:35:33.744Z,35.58
2022-10-22T00:35:47.483Z,35.70
2022-10-22T00:36:01.108Z,34.97
2022-10-22T00:36:13.762Z,36.55
2022-10-22T00:36:26.328Z,37.80
2022-10-22T00:36:38.862Z,37.42
2022-10-22T00:36:51.850Z,35.70
2022-10-22T00:37:04.546Z,37.72
2022-10-22T00:37:18.289Z,36.80
2022-10-22T00:37:31.239Z,36.20
2022-10-22T00:37:43.840Z,36.17
2022-10-22T00:37:56.400Z,37.05
2022-10-22T00:38:08.978Z,37.42
2022-10-22T00:38:21.741Z,35.45
2022-10-22T00:38:34.380Z,37.33
2022-10-22T00:38:46.954Z,39.95
2022-10-22T00:38:59.537Z,40.25
2022-10-22T00:39:16.086Z,38.97
2022-10-22T00:39:29.262Z,37.60
2022-10-22T00:39:42.133Z,38.28
2022-10-22T00:39:56.133Z,37.33
2022-10-22T00:40:10.407Z,37.08
2022-10-22T00:40:23.102Z,37.05
2022-10-22T00:40:36.645Z,36.83
2022-10-22T00:40:49.271Z,38.33
2022-10-22T00:41:19.557Z,41.53
2022-10-22T00:41:32.121Z,41.63
2022-10-22T00:41:45.776Z,41.35
2022-10-22T00:42:00.586Z,38.03
2022-10-22T00:42:19.604Z,38.65
2022-10-22T00:42:32.170Z,40.85
2022-10-22T00:42:44.854Z,40.10
2022-10-22T00:42:58.153Z,40.97
2022-10-22T00:43:11.756Z,42.42
2022-10-22T00:43:24.432Z,39.67
2022-10-22T00:43:56.673Z,37.65
2022-10-22T00:44:47.720Z,41.70
2022-10-22T00:45:20.032Z,39.35
2022-10-22T00:45:32.584Z,40.47
2022-10-22T00:45:45.398Z,40.78
2022-10-22T00:45:58.090Z,39.42
2022-10-22T00:46:10.671Z,38.53
2022-10-22T00:46:23.383Z,39.75
2022-10-22T00:46:35.937Z,39.50
2022-10-22T00:46:49.716Z,37.20
2022-10-22T00:47:02.304Z,37.40
2022-10-22T00:47:15.925Z,39.75
2022-10-22T00:47:31.585Z,41.05
2022-10-22T00:47:49.162Z,37.95
2022-10-22T00:48:05.522Z,36.85
2022-10-22T00:48:23.083Z,39.53
2022-10-22T00:48:35.729Z,38.88
2022-10-22T00:48:48.316Z,37.30
2022-10-22T00:49:04.180Z,37.90
2022-10-22T00:49:16.744Z,39.30
2022-10-22T00:49:29.648Z,39.88
2022-10-22T00:49:43.366Z,38.67
2022-10-22T00:49:57.506Z,38.95
2022-10-22T00:50:16.943Z,37.70
2022-10-22T00:50:33.772Z,41.97
2022-10-22T00:50:50.583Z,40.55
2022-10-22T00:51:06.517Z,35.75
2022-10-22T00:51:22.788Z,38.53
2022-10-22T00:51:36.297Z,39.63
2022-10-22T00:51:49.063Z,38.90
2022-10-22T00:52:01.635Z,38.90
2022-10-22T00:52:14.736Z,39.30
2022-10-22T00:52:28.496Z,38.53
2022-10-22T00:52:41.742Z,39.20
2022-10-22T00:52:56.343Z,39.28
2022-10-22T00:53:13.452Z,41.72
2022-10-22T00:53:30.245Z,39.45
2022-10-22T00:53:46.880Z,37.58
2022-10-22T00:54:04.557Z,38.97
2022-10-22T00:54:17.158Z,37.95
2022-10-22T00:54:29.772Z,39.00
2022-10-22T00:54:42.726Z,39.38
2022-10-22T00:54:58.842Z,38.72
2022-10-22T00:55:14.294Z,36.80
2022-10-22T00:55:29.143Z,37.33
2022-10-22T00:55:43.881Z,36.53
2022-10-22T00:55:56.734Z,36.63
2022-10-22T00:56:10.577Z,38.42
2022-10-22T00:56:23.900Z,40.85
2022-10-22T00:56:37.568Z,41.50
2022-10-22T00:56:50.172Z,41.00
2022-10-22T00:57:02.762Z,38.33
2022-10-22T00:57:16.456Z,38.08
2022-10-22T00:57:29.068Z,38.83
2022-10-22T00:57:42.051Z,37.35
2022-10-22T00:57:58.285Z,36.17
2022-10-22T00:58:12.866Z,36.58
2022-10-22T00:58:28.304Z,36.33
2022-10-22T00:58:45.668Z,37.03
2022-10-22T00:59:00.725Z,38.60
2022-10-22T00:59:14.403Z,37.92
2022-10-22T00:59:28.510Z,35.95
2022-10-22T00:59:41.210Z,36.97
2022-10-22T00:59:56.015Z,36.80
2022-10-22T01:00:10.024Z,36.78
2022-10-22T01:00:22.642Z,37.08
2022-10-22T01:00:35.692Z,36.80
2022-10-22T01:00:49.766Z,36.72
2022-10-22T01:01:03.271Z,40.03
2022-10-22T01:01:21.661Z,39.72
2022-10-22T01:01:34.565Z,34.45
2022-10-22T01:01:47.168Z,34.47
2022-10-22T01:01:59.942Z,36.35
2022-10-22T01:02:12.533Z,38.83
2022-10-22T01:02:25.210Z,38.30
2022-10-22T01:02:39.454Z,37.00
2022-10-22T01:02:53.645Z,35.80
2022-10-22T01:03:06.759Z,34.97
2022-10-22T01:03:19.430Z,36.67
2022-10-22T01:03:32.734Z,36.72
2022-10-22T01:03:45.676Z,36.92
2022-10-22T01:04:00.158Z,36.83
2022-10-22T01:04:12.918Z,36.22
2022-10-22T01:04:25.582Z,35.53
2022-10-22T01:04:38.364Z,36.03
2022-10-22T01:04:50.947Z,36.78
2022-10-22T01:05:03.888Z,36.75
2022-10-22T01:05:16.989Z,37.65
2022-10-22T01:05:33.712Z,38.92
2022-10-22T01:05:52.708Z,35.13
2022-10-22T01:06:06.282Z,35.65
2022-10-22T01:06:24.196Z,36.75
2022-10-22T01:06:36.754Z,36.63
2022-10-22T01:06:50.759Z,36.80
2022-10-22T01:07:03.442Z,36.13
2022-10-22T01:07:18.532Z,36.15
2022-10-22T01:07:31.553Z,36.67
2022-10-22T01:07:47.032Z,36.80
2022-10-22T01:08:00.276Z,38.35
2022-10-22T01:08:24.425Z,39.72
2022-10-22T01:08:48.057Z,37.55
2022-10-22T01:09:12.536Z,33.78
2022-10-22T01:09:32.923Z,36.28
2022-10-22T01:09:50.503Z,37.13
2022-10-22T01:10:11.515Z,36.80
2022-10-22T01:10:50.197Z,36.92
2022-10-22T01:11:15.185Z,36.03
2022-10-22T01:11:35.887Z,39.95
2022-10-22T01:12:01.299Z,37.05
2022-10-22T01:12:23.345Z,37.10
2022-10-22T01:12:47.244Z,36.45
2022-10-22T01:13:14.862Z,36.88
2022-10-22T01:13:52.469Z,37.10
2022-10-22T01:14:16.672Z,35.25
2022-10-22T01:14:36.570Z,35.95
2022-10-22T01:15:03.655Z,38.30
2022-10-22T01:15:25.126Z,37.20
2022-10-22T01:15:45.029Z,36.00
2022-10-22T01:16:03.274Z,36.60
2022-10-22T01:16:21.837Z,38.45
2022-10-22T01:16:44.558Z,38.50
2022-10-22T01:17:05.004Z,37.88
2022-10-22T01:17:24.775Z,34.47
2022-10-22T01:17:47.738Z,38.75
2022-10-22T01:18:07.757Z,35.75
2022-10-22T01:18:24.729Z,36.53
2022-10-22T01:18:48.086Z,36.42
2022-10-22T01:19:14.149Z,39.28
2022-10-22T01:19:48.053Z,37.53
2022-10-22T01:20:11.869Z,38.50
2022-10-22T01:20:41.525Z,35.08
2022-10-22T01:21:07.148Z,37.38
2022-10-22T01:21:32.716Z,38.10
2022-10-22T01:21:50.122Z,33.88
2022-10-22T01:22:09.138Z,36.03
2022-10-22T01:22:29.554Z,38.30
2022-10-22T01:22:46.490Z,37.00
2022-10-22T01:23:09.164Z,36.45
2022-10-22T01:23:43.235Z,35.05
2022-10-22T01:24:19.088Z,35.92
2022-10-22T01:24:42.189Z,35.97
2022-10-22T01:24:58.808Z,36.38
2022-10-22T01:25:20.246Z,34.58
2022-10-22T01:25:36.874Z,37.67
2022-10-22T01:25:57.026Z,36.45
2022-10-22T01:26:17.888Z,33.63
2022-10-22T01:26:43.796Z,37.03
2022-10-22T01:27:25.614Z,39.08
2022-10-22T01:27:55.019Z,37.72
2022-10-22T01:28:19.722Z,34.47
2022-10-22T01:28:57.296Z,33.95
2022-10-22T01:29:14.516Z,34.75
2022-10-22T01:29:31.021Z,34.75
2022-10-22T01:29:48.624Z,37.50
2022-10-22T01:30:04.329Z,39.80
2022-10-22T01:30:19.422Z,35.92
2022-10-22T01:30:32.093Z,35.35
2022-10-22T01:30:46.352Z,37.03
2022-10-22T01:31:01.200Z,38.45
2022-10-22T01:31:16.073Z,41.15
2022-10-22T01:31:33.396Z,39.03
2022-10-22T01:31:50.397Z,38.53
2022-10-22T01:32:11.660Z,40.80
2022-10-22T01:32:27.478Z,36.25
2022-10-22T01:32:44.108Z,37.20
2022-10-22T01:33:01.768Z,38.13
2022-10-22T01:33:17.955Z,37.13
2022-10-22T01:33:32.708Z,36.53
2022-10-22T01:33:48.006Z,39.03
2022-10-22T01:34:02.885Z,39.50
2022-10-22T01:34:19.404Z,36.65
2022-10-22T01:34:33.545Z,36.83
2022-10-22T01:34:53.031Z,36.90
2022-10-22T01:35:09.920Z,38.22
2022-10-22T01:35:27.970Z,37.78
2022-10-22T01:35:46.211Z,37.33
2022-10-22T01:36:00.157Z,37.30
2022-10-22T01:36:14.473Z,37.33
2022-10-22T01:36:30.031Z,37.45
2022-10-22T01:36:44.055Z,38.30
2022-10-22T01:36:59.380Z,38.00
2022-10-22T01:37:14.132Z,36.35
2022-10-22T01:37:31.466Z,35.78
2022-10-22T01:37:49.018Z,36.60
2022-10-22T01:38:05.911Z,37.50
2022-10-22T01:38:23.317Z,38.03
2022-10-22T01:38:37.728Z,37.75
2022-10-22T01:38:51.757Z,38.55
2022-10-22T01:39:08.500Z,38.10
2022-10-22T01:39:23.355Z,37.50
2022-10-22T01:39:38.673Z,36.08
2022-10-22T01:39:52.688Z,36.00
2022-10-22T01:40:08.415Z,35.88
2022-10-22T01:40:23.186Z,34.60
2022-10-22T01:40:38.002Z,39.03
2022-10-22T01:40:52.044Z,40.15
2022-10-22T01:41:05.150Z,36.78
2022-10-22T01:41:18.483Z,35.00
2022-10-22T01:41:31.504Z,35.55
2022-10-22T01:41:45.505Z,35.95
2022-10-22T01:42:00.359Z,37.80
2022-10-22T01:42:14.002Z,40.08
2022-10-22T01:42:26.711Z,40.35
2022-10-22T01:42:39.309Z,37.63
2022-10-22T01:43:00.205Z,35.97
2022-10-22T01:43:13.845Z,37.75
2022-10-22T01:43:26.467Z,38.70
2022-10-22T01:43:39.048Z,38.42
2022-10-22T01:43:53.021Z,39.17
2022-10-22T01:44:05.716Z,38.88
2022-10-22T01:44:26.259Z,36.83
2022-10-22T01:44:39.029Z,37.75
2022-10-22T01:44:51.756Z,38.78
2022-10-22T01:45:12.744Z,37.50
2022-10-22T01:45:25.840Z,36.10
2022-10-22T01:45:42.485Z,34.45
2022-10-22T01:45:59.306Z,36.80
2022-10-22T01:46:13.525Z,36.78
2022-10-22T01:46:30.788Z,35.45
2022-10-22T01:46:43.605Z,34.78
2022-10-22T01:47:05.606Z,34.80
2022-10-22T01:47:27.804Z,35.75
2022-10-22T01:47:51.550Z,36.17
2022-10-22T01:48:17.580Z,36.78
2022-10-22T01:48:46.030Z,36.58
2022-10-22T01:49:17.484Z,37.63
2022-10-22T01:49:41.014Z,37.67
2022-10-22T01:50:14.470Z,38.47
2022-10-22T01:50:50.018Z,37.70
2022-10-22T01:51:18.282Z,38.20
2022-10-22T01:51:48.280Z,35.03
2022-10-22T01:52:10.616Z,37.65
2022-10-22T01:52:33.690Z,38.53
2022-10-22T01:53:11.890Z,39.00
2022-10-22T01:53:37.491Z,36.70
2022-10-22T01:53:54.359Z,37.55
2022-10-22T01:54:20.798Z,37.80
2022-10-22T01:54:40.400Z,39.78
2022-10-22T01:55:02.446Z,42.10
2022-10-22T01:55:26.130Z,39.78
2022-10-22T01:55:48.641Z,41.55
2022-10-22T01:56:17.276Z,38.67
2022-10-22T01:56:48.798Z,36.58
2022-10-22T01:57:13.588Z,36.97
2022-10-22T01:57:33.616Z,37.58
2022-10-22T01:57:53.772Z,36.63
2022-10-22T01:58:18.656Z,37.22
2022-10-22T01:58:42.294Z,37.20
2022-10-22T01:59:04.735Z,37.85
2022-10-22T01:59:28.273Z,37.38
2022-10-22T01:59:51.711Z,35.95
2022-10-22T02:00:08.622Z,38.00
2022-10-22T02:00:22.073Z,37.00
2022-10-22T02:00:40.213Z,37.58
2022-10-22T02:01:00.506Z,40.00
2022-10-22T02:01:23.664Z,40.72
2022-10-22T02:01:41.780Z,38.83
2022-10-22T02:02:00.067Z,40.33
2022-10-22T02:02:25.884Z,39.33
2022-10-22T02:02:44.553Z,38.00
2022-10-22T02:03:02.381Z,39.13
2022-10-22T02:03:23.645Z,37.25
2022-10-22T02:03:42.112Z,36.10
2022-10-22T02:04:02.516Z,34.30
2022-10-22T02:04:20.096Z,34.80
2022-10-22T02:04:41.714Z,37.10
2022-10-22T02:04:58.980Z,38.05
2022-10-22T02:05:18.558Z,38.05
2022-10-22T02:05:36.901Z,40.05
2022-10-22T02:05:52.036Z,37.95
2022-10-22T02:06:10.563Z,36.67
2022-10-22T02:06:25.634Z,38.45
2022-10-22T02:06:42.694Z,39.42
2022-10-22T02:07:00.347Z,37.70
2022-10-22T02:07:17.424Z,36.45
2022-10-22T02:07:34.714Z,36.72
2022-10-22T02:07:51.400Z,36.95
2022-10-22T02:08:07.944Z,38.15
2022-10-22T02:08:24.418Z,37.47
2022-10-22T02:08:38.740Z,37.08
2022-10-22T02:08:53.798Z,37.38
2022-10-22T02:09:07.681Z,35.42
2022-10-22T02:09:24.420Z,37.03
2022-10-22T02:09:40.338Z,38.55
2022-10-22T02:09:55.087Z,36.90
2022-10-22T02:10:11.251Z,37.78
2022-10-22T02:10:25.002Z,39.88
2022-10-22T02:10:39.698Z,38.03
2022-10-22T02:10:54.332Z,34.10
2022-10-22T02:11:07.815Z,34.35
2022-10-22T02:11:20.796Z,36.10
2022-10-22T02:11:33.507Z,38.60
2022-10-22T02:11:48.772Z,39.40
2022-10-22T02:12:23.004Z,37.88
2022-10-22T02:12:37.275Z,40.40
2022-10-22T02:12:53.544Z,38.38
2022-10-22T02:13:09.937Z,37.22
2022-10-22T02:13:27.073Z,37.40
2022-10-22T02:13:44.627Z,37.40
2022-10-22T02:14:02.466Z,38.47
2022-10-22T02:14:17.993Z,38.70
2022-10-22T02:14:32.058Z,39.63
2022-10-22T02:14:46.628Z,39.10
2022-10-22T02:15:01.245Z,39.08
2022-10-22T02:15:16.245Z,40.90
2022-10-22T02:15:31.461Z,41.17
2022-10-22T02:15:46.808Z,40.50
2022-10-22T02:16:00.976Z,40.60
2022-10-22T02:16:19.066Z,40.20
2022-10-22T02:16:37.506Z,38.72
2022-10-22T02:16:50.914Z,37.05
2022-10-22T02:17:06.522Z,37.83
2022-10-22T02:17:21.976Z,38.85
2022-10-22T02:17:37.417Z,38.42
2022-10-22T02:17:51.890Z,38.45
2022-10-22T02:18:09.816Z,37.75
2022-10-22T02:18:26.954Z,37.20
2022-10-22T02:18:42.612Z,38.15
2022-10-22T02:18:58.444Z,37.97
2022-10-22T02:19:17.689Z,38.28
2022-10-22T02:19:41.769Z,37.33
2022-10-22T02:19:58.710Z,40.80
2022-10-22T02:20:16.895Z,39.28
2022-10-22T02:20:33.257Z,38.72
2022-10-22T02:20:46.056Z,40.22
2022-10-22T02:21:00.236Z,39.30
2022-10-22T02:21:13.048Z,37.88
2022-10-22T02:21:28.203Z,37.30
2022-10-22T02:21:41.151Z,36.78
2022-10-22T02:21:54.772Z,39.67
2022-10-22T02:22:08.026Z,41.03
2022-10-22T02:22:21.416Z,40.17
2022-10-22T02:22:34.520Z,39.15
2022-10-22T02:22:47.547Z,39.47
2022-10-22T02:23:01.848Z,39.92
2022-10-22T02:23:15.183Z,39.35
2022-10-22T02:23:28.762Z,39.20
2022-10-22T02:23:41.665Z,40.15
2022-10-22T02:23:54.631Z,39.17
2022-10-22T02:24:08.101Z,39.13
2022-10-22T02:24:22.956Z,37.65
2022-10-22T02:24:35.824Z,37.20
2022-10-22T02:24:49.882Z,36.97
2022-10-22T02:25:03.003Z,38.80
2022-10-22T02:25:16.612Z,38.88
2022-10-22T02:25:32.767Z,38.92
2022-10-22T02:25:51.530Z,40.42
2022-10-22T02:26:10.771Z,39.20
2022-10-22T02:26:28.244Z,37.35
2022-10-22T02:26:46.960Z,37.13
2022-10-22T02:27:07.454Z,39.83
2022-10-22T02:27:26.866Z,39.13
2022-10-22T02:27:44.564Z,39.15
2022-10-22T02:28:03.892Z,45.92
2022-10-22T02:28:24.944Z,48.17
2022-10-22T02:28:46.345Z,38.17
2022-10-22T02:29:06.755Z,39.65
2022-10-22T02:29:24.596Z,40.10
2022-10-22T02:29:41.485Z,37.05
2022-10-22T02:30:02.056Z,36.17
2022-10-22T02:30:17.674Z,37.92
2022-10-22T02:30:33.055Z,40.15
2022-10-22T02:30:52.053Z,37.83
2022-10-22T02:31:14.604Z,37.35
2022-10-22T02:31:31.100Z,40.00
2022-10-22T02:31:47.995Z,38.00
2022-10-22T02:32:03.722Z,36.00
2022-10-22T02:32:21.684Z,36.92
2022-10-22T02:32:40.226Z,38.67
2022-10-22T02:33:00.321Z,39.20
2022-10-22T02:33:18.174Z,36.92
2022-10-22T02:33:34.984Z,37.42
2022-10-22T02:33:51.079Z,39.17
2022-10-22T02:34:08.952Z,38.08
2022-10-22T02:34:27.221Z,36.35
2022-10-22T02:34:40.330Z,38.28
2022-10-22T02:34:54.320Z,40.28
2022-10-22T02:35:09.119Z,40.05
2022-10-22T02:35:25.180Z,38.05
2022-10-22T02:35:41.141Z,37.20
2022-10-22T02:35:56.556Z,35.60
2022-10-22T02:36:09.889Z,35.00
2022-10-22T02:36:23.897Z,37.70
2022-10-22T02:36:38.782Z,36.10
2022-10-22T02:36:52.364Z,34.72
2022-10-22T02:37:06.654Z,37.22
2022-10-22T02:37:20.981Z,37.28
2022-10-22T02:37:34.288Z,36.67
2022-10-22T02:37:47.490Z,38.28
2022-10-22T02:38:01.021Z,39.65
2022-10-22T02:38:13.918Z,38.83
2022-10-22T02:38:28.388Z,38.03
2022-10-22T02:38:42.760Z,37.70
2022-10-22T02:38:56.349Z,40.08
2022-10-22T02:39:12.200Z,38.97
2022-10-22T02:39:26.145Z,37.78
2022-10-22T02:39:39.624Z,41.08
2022-10-22T02:39:52.732Z,40.45
2022-10-22T02:40:06.739Z,38.88
2022-10-22T02:40:20.325Z,36.83
2022-10-22T02:40:34.448Z,36.30
2022-10-22T02:40:47.362Z,37.13
2022-10-22T02:41:00.118Z,35.88
2022-10-22T02:41:12.924Z,37.20
2022-10-22T02:41:25.661Z,39.60
2022-10-22T02:41:38.520Z,40.75
2022-10-22T02:41:51.106Z,40.55
2022-10-22T02:42:05.039Z,38.35
2022-10-22T02:42:18.328Z,37.58
2022-10-22T02:42:31.077Z,36.13
2022-10-22T02:42:46.489Z,37.30
2022-10-22T02:42:59.481Z,38.03
2022-10-22T02:43:12.080Z,35.67
2022-10-22T02:43:26.319Z,34.55
2022-10-22T02:43:43.094Z,35.30
2022-10-22T02:43:56.252Z,36.45
2022-10-22T02:44:11.220Z,35.85
2022-10-22T02:44:24.514Z,36.08
2022-10-22T02:44:37.103Z,36.30
2022-10-22T02:44:50.689Z,36.28
2022-10-22T02:45:04.175Z,36.10
2022-10-22T02:45:18.104Z,35.42
2022-10-22T02:45:31.055Z,36.78
2022-10-22T02:45:43.752Z,38.03
2022-10-22T02:45:56.348Z,36.88
2022-10-22T02:46:09.405Z,35.22
2022-10-22T02:46:22.876Z,36.58
2022-10-22T02:46:37.043Z,35.53
2022-10-22T02:46:50.316Z,34.50
2022-10-22T02:47:02.934Z,36.00
2022-10-22T02:47:15.562Z,37.55
2022-10-22T02:47:28.162Z,37.00
2022-10-22T02:47:40.783Z,36.67
2022-10-22T02:47:53.376Z,37.00
2022-10-22T02:48:06.505Z,35.75
2022-10-22T02:48:33.625Z,35.60
2022-10-22T02:48:46.452Z,35.95
2022-10-22T02:48:59.055Z,37.42
2022-10-22T02:49:11.664Z,38.08
2022-10-22T02:49:24.256Z,36.78
2022-10-22T02:49:36.862Z,35.28
2022-10-22T02:49:50.448Z,36.53
2022-10-22T02:50:05.458Z,37.58
2022-10-22T02:50:20.587Z,36.88
2022-10-22T02:50:33.173Z,35.90
2022-10-22T02:50:45.866Z,35.33
2022-10-22T02:50:58.638Z,34.78
2022-10-22T02:51:11.291Z,36.03
2022-10-22T02:51:24.080Z,36.95
2022-10-22T02:51:37.694Z,37.28
2022-10-22T02:51:50.268Z,37.38
2022-10-22T02:52:02.923Z,37.97
2022-10-22T02:52:15.524Z,38.42
2022-10-22T02:52:28.138Z,39.08
2022-10-22T02:52:41.028Z,38.95
2022-10-22T02:52:53.890Z,38.80
2022-10-22T02:53:06.493Z,37.72
2022-10-22T02:53:20.127Z,37.53
2022-10-22T02:53:32.820Z,36.65
2022-10-22T02:53:45.688Z,37.72
2022-10-22T02:53:58.409Z,37.75
2022-10-22T02:54:11.024Z,38.42
2022-10-22T02:54:23.685Z,37.05
2022-10-22T02:54:37.286Z,38.50
2022-10-22T02:54:49.921Z,41.58
2022-10-22T02:55:02.808Z,41.90
2022-10-22T02:55:15.505Z,38.72
2022-10-22T02:55:28.204Z,36.40
2022-10-22T02:55:40.817Z,35.88
2022-10-22T02:55:53.418Z,37.55
2022-10-22T02:56:07.661Z,37.72
2022-10-22T02:56:20.282Z,38.30
2022-10-22T02:56:33.073Z,38.75
2022-10-22T02:56:45.660Z,37.90
2022-10-22T02:56:58.256Z,36.85
2022-10-22T02:57:10.980Z,34.80
2022-10-22T02:57:24.600Z,34.65
2022-10-22T02:57:37.475Z,36.28
2022-10-22T02:57:50.290Z,35.83
2022-10-22T02:58:02.966Z,36.45
2022-10-22T02:58:15.561Z,36.30
2022-10-22T02:58:28.156Z,36.75
2022-10-22T02:58:40.750Z,36.70
2022-10-22T02:58:53.372Z,36.83
2022-10-22T02:59:07.152Z,38.05
2022-10-22T02:59:21.344Z,38.80
2022-10-22T02:59:34.306Z,37.85
2022-10-22T02:59:46.948Z,37.00
2022-10-22T02:59:59.792Z,37.08
2022-10-22T03:00:13.407Z,39.45
2022-10-22T03:00:27.226Z,40.97
2022-10-22T03:00:39.989Z,40.10
2022-10-22T03:00:52.657Z,38.63
2022-10-22T03:01:06.914Z,41.08
2022-10-22T03:01:19.619Z,40.92
2022-10-22T03:01:32.327Z,40.42
2022-10-22T03:01:44.927Z,39.75
2022-10-22T03:02:01.307Z,39.58
2022-10-22T03:02:13.904Z,39.42
2022-10-22T03:02:26.594Z,38.08
2022-10-22T03:02:39.226Z,37.00
2022-10-22T03:02:51.814Z,35.58
2022-10-22T03:03:04.378Z,35.53
2022-10-22T03:03:17.084Z,35.53
2022-10-22T03:03:30.718Z,35.03
2022-10-22T03:03:43.362Z,35.15
2022-10-22T03:03:55.977Z,35.47
2022-10-22T03:04:08.721Z,35.92
2022-10-22T03:04:21.325Z,37.33
2022-10-22T03:04:35.365Z,38.25
2022-10-22T03:04:49.152Z,38.60
2022-10-22T03:05:01.780Z,36.78
2022-10-22T03:05:14.466Z,37.38
2022-10-22T03:05:27.084Z,38.63
2022-10-22T03:05:39.739Z,35.63
2022-10-22T03:05:52.514Z,34.90
2022-10-22T03:06:05.317Z,37.97
2022-10-22T03:06:19.016Z,37.05
2022-10-22T03:06:31.696Z,35.53
2022-10-22T03:06:44.776Z,36.20
2022-10-22T03:06:57.409Z,38.33
2022-10-22T03:07:10.120Z,38.85
2022-10-22T03:07:22.940Z,38.15
2022-10-22T03:07:35.826Z,36.10
2022-10-22T03:07:48.420Z,35.33
2022-10-22T03:08:02.010Z,34.85
2022-10-22T03:08:14.626Z,36.85
2022-10-22T03:08:27.360Z,37.97
2022-10-22T03:08:40.010Z,36.60
2022-10-22T03:08:52.768Z,38.35
2022-10-22T03:09:05.446Z,41.08
2022-10-22T03:09:21.287Z,40.40
2022-10-22T03:09:37.725Z,36.40
2022-10-22T03:09:50.316Z,34.63
2022-10-22T03:10:02.999Z,33.40
2022-10-22T03:10:15.762Z,34.53
2022-10-22T03:10:28.360Z,33.97
2022-10-22T03:10:41.227Z,34.75
2022-10-22T03:10:53.854Z,35.60
2022-10-22T03:11:06.824Z,37.13
2022-10-22T03:11:20.436Z,36.15
2022-10-22T03:11:33.042Z,34.28
2022-10-22T03:11:45.703Z,34.25
2022-10-22T03:11:58.322Z,35.60
2022-10-22T03:12:11.012Z,36.20
2022-10-22T03:12:23.614Z,35.88
2022-10-22T03:12:36.242Z,36.42
2022-10-22T03:12:48.826Z,35.78
2022-10-22T03:13:02.529Z,37.25
2022-10-22T03:13:15.184Z,38.28
2022-10-22T03:13:27.797Z,37.15
2022-10-22T03:13:40.390Z,35.90
2022-10-22T03:13:52.995Z,36.80
2022-10-22T03:14:05.863Z,36.28
2022-10-22T03:14:19.772Z,36.88
2022-10-22T03:14:33.769Z,35.85
2022-10-22T03:14:49.242Z,35.20
2022-10-22T03:15:01.859Z,35.50
2022-10-22T03:15:14.755Z,35.70
2022-10-22T03:15:45.142Z,35.85
2022-10-22T03:15:57.806Z,33.25
2022-10-22T03:16:11.424Z,35.97
2022-10-22T03:16:24.032Z,36.58
2022-10-22T03:16:36.672Z,36.15
2022-10-22T03:16:49.246Z,36.08
2022-10-22T03:17:02.183Z,35.88
2022-10-22T03:17:14.790Z,34.03
2022-10-22T03:17:27.380Z,36.28
2022-10-22T03:17:40.328Z,35.83
2022-10-22T03:17:53.140Z,34.83
2022-10-22T03:18:06.843Z,35.65
2022-10-22T03:18:19.437Z,36.20
2022-10-22T03:18:32.076Z,34.97
2022-10-22T03:18:44.658Z,35.70
2022-10-22T03:18:57.291Z,33.70
2022-10-22T03:19:10.000Z,33.78
2022-10-22T03:19:23.618Z,35.97
2022-10-22T03:19:36.236Z,37.83
2022-10-22T03:19:48.904Z,37.67
2022-10-22T03:20:01.541Z,38.40
2022-10-22T03:20:14.603Z,36.85